Time;durP1;ratioP1;P1;durP2;ratioP2;P2;SDS_P1;SDS_P2;PMS_P1;PMS_P2;Temp;Humidity;BMP_temperature;BMP_pressure;BME280_temperature;BME280_humidity;BME280_pressure;Samples;Min_cycle;Max_cycle;Signal;HPM_P1;HPM_P2
2021/06/23 00:00:48;;;;;;;12.13;8.10;;;;;;;;;;10525906;28;20215;-72
2021/06/23 00:05:52;;;;;;;11.40;7.60;;;;;;;;;;10519403;28;20326;-72
2021/06/23 00:10:55;;;;;;;10.33;7.20;;;;;;;;;;10525662;28;20602;-71
2021/06/23 00:15:58;;;;;;;10.43;6.80;;;;;;;;;;10528274;28;20202;-71
2021/06/23 00:21:01;;;;;;;9.97;6.20;;;;;;;;;;10527959;28;20298;-73
2021/06/23 00:26:04;;;;;;;9.27;5.90;;;;;;;;;;10526830;28;20751;-72
2021/06/23 00:31:06;;;;;;;8.37;5.30;;;;;;;;;;10521943;28;20231;-71
2021/06/23 00:36:11;;;;;;;9.10;5.47;;;;;;;;;;10527479;28;20187;-71
2021/06/23 00:41:17;;;;;;;7.80;4.43;;;;;;;;;;10523124;28;20808;-72
2021/06/23 00:46:20;;;;;;;6.80;3.87;;;;;;;;;;10529315;28;20298;-71
2021/06/23 00:51:34;;;;;;;6.73;3.90;;;;;;;;;;10524380;28;20224;-69
2021/06/23 00:56:36;;;;;;;7.53;4.00;;;;;;;;;;10529149;28;20275;-72
2021/06/23 01:01:40;;;;;;;8.00;4.73;;;;;;;;;;10519596;28;20290;-72
2021/06/23 01:06:44;;;;;;;9.30;5.77;;;;;;;;;;10527653;28;20206;-71
2021/06/23 01:12:00;;;;;;;9.77;6.27;;;;;;;;;;10527606;28;20302;-69
2021/06/23 01:17:03;;;;;;;11.70;7.13;;;;;;;;;;10534221;28;20199;-72
2021/06/23 01:22:07;;;;;;;12.23;8.07;;;;;;;;;;10533337;28;20684;-72
2021/06/23 01:27:10;;;;;;;12.83;8.40;;;;;;;;;;10528903;28;20211;-72
2021/06/23 01:32:13;;;;;;;12.77;8.23;;;;;;;;;;10534418;28;20200;-69
2021/06/23 01:37:17;;;;;;;14.77;9.70;;;;;;;;;;10541085;28;20219;-72
2021/06/23 01:42:19;;;;;;;15.13;10.03;;;;;;;;;;10534978;28;20242;-71
2021/06/23 01:47:22;;;;;;;16.37;10.77;;;;;;;;;;10529331;28;20272;-73
2021/06/23 01:52:26;;;;;;;15.60;11.47;;;;;;;;;;10536076;28;20642;-72
2021/06/23 01:57:29;;;;;;;15.30;10.50;;;;;;;;;;10527693;28;20195;-72
2021/06/23 02:02:34;;;;;;;15.53;10.33;;;;;;;;;;10531608;28;20269;-72
2021/06/23 02:07:50;;;;;;;15.90;10.50;;;;;;;;;;10533411;28;20591;-70
2021/06/23 02:13:12;;;;;;;14.50;9.93;;;;;;;;;;10534852;28;20191;-72
2021/06/23 02:18:15;;;;;;;15.13;10.53;;;;;;;;;;10526624;28;20235;-72
2021/06/23 02:23:20;;;;;;;15.37;11.10;;;;;;;;;;10532078;28;20577;-72
2021/06/23 02:28:23;;;;;;;15.67;10.37;;;;;;;;;;10536913;28;20223;-74
2021/06/23 02:33:26;;;;;;;15.07;9.93;;;;;;;;;;10528505;28;20306;-71
2021/06/23 02:38:29;;;;;;;14.47;9.67;;;;;;;;;;10532869;28;20242;-72
2021/06/23 02:43:32;;;;;;;14.67;9.70;;;;;;;;;;10532279;28;20279;-75
2021/06/23 02:48:35;;;;;;;15.90;10.90;;;;;;;;;;10532418;28;20410;-72
2021/06/23 02:53:40;;;;;;;15.53;10.63;;;;;;;;;;10532529;28;20596;-71
2021/06/23 02:58:43;;;;;;;15.10;10.20;;;;;;;;;;10526514;28;20222;-72
2021/06/23 03:03:46;;;;;;;15.40;10.27;;;;;;;;;;10527880;28;20226;-73
2021/06/23 03:08:50;;;;;;;15.63;10.63;;;;;;;;;;10527545;28;20594;-72
2021/06/23 03:13:53;;;;;;;15.13;9.93;;;;;;;;;;10530551;28;20241;-72
2021/06/23 03:18:55;;;;;;;15.43;10.57;;;;;;;;;;10531600;28;20243;-72
2021/06/23 03:23:59;;;;;;;15.17;10.73;;;;;;;;;;10530364;28;20567;-72
2021/06/23 03:29:14;;;;;;;14.77;9.60;;;;;;;;;;10532473;28;20219;-73
2021/06/23 03:34:17;;;;;;;14.20;9.70;;;;;;;;;;10529503;28;20624;-73
2021/06/23 03:39:21;;;;;;;13.17;9.33;;;;;;;;;;10527482;28;20239;-70
2021/06/23 03:44:23;;;;;;;13.63;8.60;;;;;;;;;;10536693;28;20195;-74
2021/06/23 03:49:26;;;;;;;12.20;8.33;;;;;;;;;;10541854;28;20651;-72
2021/06/23 03:54:30;;;;;;;12.37;8.37;;;;;;;;;;10525316;28;20656;-73
2021/06/23 03:59:32;;;;;;;12.63;9.33;;;;;;;;;;10543493;28;20309;-71
2021/06/23 04:04:35;;;;;;;13.20;8.70;;;;;;;;;;10528100;28;20217;-74
2021/06/23 04:09:39;;;;;;;14.37;9.80;;;;;;;;;;10529460;28;20724;-73
2021/06/23 04:14:42;;;;;;;15.87;10.77;;;;;;;;;;10521215;28;20203;-73
2021/06/23 04:20:05;;;;;;;18.30;12.47;;;;;;;;;;10529561;28;20217;-73
2021/06/23 04:25:11;;;;;;;17.60;11.67;;;;;;;;;;10525483;28;20202;-72
2021/06/23 04:30:34;;;;;;;16.60;11.70;;;;;;;;;;10530581;28;20686;-73
2021/06/23 04:35:37;;;;;;;17.90;11.63;;;;;;;;;;10531645;28;20199;-71
2021/06/23 04:40:41;;;;;;;16.10;11.67;;;;;;;;;;10527852;28;20211;-73
2021/06/23 04:45:43;;;;;;;18.63;12.37;;;;;;;;;;10531406;28;20283;-74
2021/06/23 04:50:46;;;;;;;16.10;12.17;;;;;;;;;;10537623;28;20556;-73
2021/06/23 04:55:54;;;;;;;16.87;10.90;;;;;;;;;;10537387;28;20199;-71
2021/06/23 05:00:57;;;;;;;16.07;11.47;;;;;;;;;;10537147;28;20215;-71
2021/06/23 05:06:00;;;;;;;16.33;11.70;;;;;;;;;;10530105;28;20249;-71
2021/06/23 05:11:04;;;;;;;16.63;12.30;;;;;;;;;;10538089;28;20223;-74
2021/06/23 05:16:07;;;;;;;16.97;12.03;;;;;;;;;;10533290;28;20754;-72
2021/06/23 05:21:10;;;;;;;17.00;12.37;;;;;;;;;;10538313;28;20285;-73
2021/06/23 05:26:14;;;;;;;16.23;12.20;;;;;;;;;;10535114;28;20208;-73
2021/06/23 05:31:16;;;;;;;15.50;11.07;;;;;;;;;;10533666;28;20207;-73
2021/06/23 05:36:19;;;;;;;15.57;10.23;;;;;;;;;;10534790;28;20627;-73
2021/06/23 05:41:23;;;;;;;16.43;11.07;;;;;;;;;;10534186;28;20215;-74
2021/06/23 05:46:26;;;;;;;12.87;9.13;;;;;;;;;;10529166;28;20231;-74
2021/06/23 05:51:28;;;;;;;13.33;9.30;;;;;;;;;;10546476;28;20216;-73
2021/06/23 05:56:32;;;;;;;14.10;9.73;;;;;;;;;;10532616;28;20200;-75
2021/06/23 06:01:35;;;;;;;15.37;11.37;;;;;;;;;;10527428;28;20214;-72
2021/06/23 06:06:38;;;;;;;12.23;9.43;;;;;;;;;;10542630;28;20212;-70
2021/06/23 06:11:42;;;;;;;14.87;9.57;;;;;;;;;;10518810;28;20394;-74
2021/06/23 06:16:45;;;;;;;13.47;9.50;;;;;;;;;;10533195;28;20207;-69
2021/06/23 06:21:50;;;;;;;14.77;9.53;;;;;;;;;;10532954;28;20212;-72
2021/06/23 06:26:54;;;;;;;13.73;9.13;;;;;;;;;;10534182;28;20207;-72
2021/06/23 06:31:57;;;;;;;12.87;9.10;;;;;;;;;;10529952;28;20247;-71
2021/06/23 06:36:59;;;;;;;13.70;8.73;;;;;;;;;;10529138;28;20192;-71
2021/06/23 06:42:04;;;;;;;12.40;8.60;;;;;;;;;;10532878;28;20269;-69
2021/06/23 06:47:06;;;;;;;11.37;7.63;;;;;;;;;;10531671;28;20579;-70
2021/06/23 06:52:09;;;;;;;11.87;7.90;;;;;;;;;;10529306;28;20212;-70
2021/06/23 06:57:13;;;;;;;11.90;8.32;;;;;;;;;;10524392;28;20199;-72
2021/06/23 07:02:15;;;;;;;10.00;7.22;;;;;;;;;;10526803;28;20226;-71
2021/06/23 07:07:18;;;;;;;11.30;7.95;;;;;;;;;;10532905;28;20529;-70
2021/06/23 07:12:22;;;;;;;10.13;6.65;;;;;;;;;;10536891;28;20196;-72
2021/06/23 07:17:25;;;;;;;10.43;6.68;;;;;;;;;;10536563;28;20338;-73
2021/06/23 07:22:27;;;;;;;10.27;7.10;;;;;;;;;;10531524;28;20200;-72
2021/06/23 07:27:31;;;;;;;10.77;8.20;;;;;;;;;;10547750;28;20238;-72
2021/06/23 07:32:35;;;;;;;11.20;7.60;;;;;;;;;;10525537;28;20196;-73
2021/06/23 07:37:38;;;;;;;9.43;6.80;;;;;;;;;;10530770;28;20226;-73
2021/06/23 07:42:42;;;;;;;9.95;6.70;;;;;;;;;;10524738;28;20719;-73
2021/06/23 07:47:44;;;;;;;9.63;6.47;;;;;;;;;;10524543;28;20235;-74
2021/06/23 07:52:53;;;;;;;8.40;5.82;;;;;;;;;;10531061;28;20200;-73
2021/06/23 08:08:56;;;;;;;6.43;3.80;;;;;;;;;;10530448;28;20628;-74
2021/06/23 08:14:00;;;;;;;6.22;4.45;;;;;;;;;;10525696;28;20610;-75
2021/06/23 08:19:03;;;;;;;6.63;4.03;;;;;;;;;;10525760;28;20215;-72
2021/06/23 08:24:06;;;;;;;5.72;3.58;;;;;;;;;;10521433;28;20663;-72
2021/06/23 08:29:10;;;;;;;5.65;4.05;;;;;;;;;;10521613;28;20215;-71
2021/06/23 08:34:13;;;;;;;5.15;3.13;;;;;;;;;;10524181;28;20219;-71
2021/06/23 08:39:15;;;;;;;4.88;3.75;;;;;;;;;;10523483;28;20210;-69
2021/06/23 08:44:19;;;;;;;4.40;3.38;;;;;;;;;;10526897;28;20205;-71
2021/06/23 08:49:22;;;;;;;6.05;3.88;;;;;;;;;;10528371;28;20243;-72
2021/06/23 08:54:27;;;;;;;4.80;3.33;;;;;;;;;;10526561;28;20204;-72
2021/06/23 08:59:30;;;;;;;6.35;3.70;;;;;;;;;;10528942;28;20299;-71
2021/06/23 09:04:33;;;;;;;6.22;4.45;;;;;;;;;;10528368;28;20200;-72
2021/06/23 09:09:36;;;;;;;5.45;3.75;;;;;;;;;;10526943;28;20310;-72
2021/06/23 09:14:40;;;;;;;5.45;3.63;;;;;;;;;;10528241;28;20203;-74
2021/06/23 09:19:44;;;;;;;5.03;3.90;;;;;;;;;;10526376;28;20292;-72
2021/06/23 09:24:47;;;;;;;5.45;3.72;;;;;;;;;;10529961;28;20274;-72
2021/06/23 09:29:51;;;;;;;4.47;3.53;;;;;;;;;;10521948;28;20243;-72
2021/06/23 09:34:55;;;;;;;5.13;4.10;;;;;;;;;;10533402;28;20248;-72
2021/06/23 09:40:12;;;;;;;5.72;3.80;;;;;;;;;;10533317;28;20249;-74
2021/06/23 09:45:17;;;;;;;5.85;3.78;;;;;;;;;;10529485;28;20190;-73
2021/06/23 09:50:21;;;;;;;5.30;3.80;;;;;;;;;;10534301;28;20242;-73
2021/06/23 09:55:33;;;;;;;6.75;4.07;;;;;;;;;;10532677;28;20199;-70
2021/06/23 10:00:51;;;;;;;5.40;3.92;;;;;;;;;;10534594;28;20568;-74
2021/06/23 10:05:54;;;;;;;5.93;3.97;;;;;;;;;;10528039;28;20270;-71
2021/06/23 10:10:57;;;;;;;6.05;3.38;;;;;;;;;;10532489;28;20289;-74
2021/06/23 10:15:59;;;;;;;6.97;4.60;;;;;;;;;;10525617;28;20200;-72
2021/06/23 10:21:07;;;;;;;7.45;5.03;;;;;;;;;;10534129;28;20264;-72
2021/06/23 10:26:09;;;;;;;6.88;3.90;;;;;;;;;;10529406;28;20655;-70
2021/06/23 10:31:12;;;;;;;4.93;3.45;;;;;;;;;;10532647;28;20702;-71
2021/06/23 10:36:17;;;;;;;4.88;3.58;;;;;;;;;;10532122;28;20184;-73
2021/06/23 10:41:19;;;;;;;4.13;3.35;;;;;;;;;;10529237;28;20239;-73
2021/06/23 10:46:37;;;;;;;5.50;3.55;;;;;;;;;;10531666;28;20221;-71
2021/06/23 10:51:41;;;;;;;3.95;3.05;;;;;;;;;;10530893;28;20219;-74
2021/06/23 10:56:44;;;;;;;4.78;3.22;;;;;;;;;;10527550;28;20192;-71
2021/06/23 11:02:01;;;;;;;3.50;2.60;;;;;;;;;;10529686;28;20235;-71
2021/06/23 11:07:05;;;;;;;3.55;2.90;;;;;;;;;;10527882;28;20283;-73
2021/06/23 11:12:08;;;;;;;4.15;2.70;;;;;;;;;;10529083;28;20251;-73
2021/06/23 11:17:29;;;;;;;4.15;2.70;;;;;;;;;;10527782;28;20703;-71
2021/06/23 11:22:36;;;;;;;3.65;2.50;;;;;;;;;;10531129;28;20192;-74
2021/06/23 11:27:38;;;;;;;3.72;3.00;;;;;;;;;;10528622;28;20202;-74
2021/06/23 11:32:41;;;;;;;2.95;2.47;;;;;;;;;;10527016;28;20196;-73
2021/06/23 11:37:45;;;;;;;3.80;2.50;;;;;;;;;;10539475;28;20215;-75
2021/06/23 11:42:47;;;;;;;4.03;2.72;;;;;;;;;;10548853;28;20318;-74
2021/06/23 11:47:50;;;;;;;4.15;3.40;;;;;;;;;;10548543;28;20211;-74
2021/06/23 11:52:54;;;;;;;5.90;2.85;;;;;;;;;;10527869;28;20724;-71
2021/06/23 11:57:58;;;;;;;5.95;3.60;;;;;;;;;;10526783;28;20238;-73
2021/06/23 12:03:01;;;;;;;4.45;3.35;;;;;;;;;;10535227;28;20595;-73
2021/06/23 12:08:05;;;;;;;4.28;3.13;;;;;;;;;;10545229;28;20218;-74
2021/06/23 12:13:08;;;;;;;5.10;3.40;;;;;;;;;;10534630;28;20640;-73
2021/06/23 12:18:11;;;;;;;4.88;3.50;;;;;;;;;;10536532;28;20219;-72
2021/06/23 12:23:15;;;;;;;5.22;3.53;;;;;;;;;;10552138;28;20188;-73
2021/06/23 12:28:18;;;;;;;6.25;3.70;;;;;;;;;;10535734;28;20306;-73
2021/06/23 12:33:20;;;;;;;4.57;3.15;;;;;;;;;;10545465;28;20738;-72
2021/06/23 12:38:25;;;;;;;5.35;4.00;;;;;;;;;;10537830;28;20287;-72
2021/06/23 12:43:27;;;;;;;5.90;4.38;;;;;;;;;;10527400;28;20206;-74
2021/06/23 12:48:30;;;;;;;5.88;3.90;;;;;;;;;;10541860;28;20295;-72
2021/06/23 12:53:34;;;;;;;7.65;4.10;;;;;;;;;;10543266;28;20255;-73
2021/06/23 12:58:36;;;;;;;5.88;3.90;;;;;;;;;;10533213;28;20214;-72
2021/06/23 13:03:39;;;;;;;5.85;4.18;;;;;;;;;;10515430;28;20296;-71
2021/06/23 13:08:43;;;;;;;6.25;3.97;;;;;;;;;;10519050;28;20216;-73
2021/06/23 13:13:46;;;;;;;6.63;3.97;;;;;;;;;;10531434;28;20196;-73
2021/06/23 13:18:48;;;;;;;5.68;3.70;;;;;;;;;;10534495;28;20555;-73
2021/06/23 13:23:52;;;;;;;6.07;3.97;;;;;;;;;;10533788;28;20292;-73
2021/06/23 13:28:55;;;;;;;8.05;4.05;;;;;;;;;;10532016;28;20211;-73
2021/06/23 13:33:57;;;;;;;8.52;5.13;;;;;;;;;;10534681;28;20211;-71
2021/06/23 13:39:01;;;;;;;6.85;4.10;;;;;;;;;;10534332;28;20267;-71
2021/06/23 13:44:04;;;;;;;6.68;3.85;;;;;;;;;;10532053;28;20226;-74
2021/06/23 13:49:07;;;;;;;10.00;6.93;;;;;;;;;;10544350;28;20241;-71
2021/06/23 13:54:15;;;;;;;7.60;4.85;;;;;;;;;;10529625;28;20188;-73
2021/06/23 13:59:17;;;;;;;6.03;4.03;;;;;;;;;;10529744;28;20302;-73
2021/06/23 14:04:20;;;;;;;6.22;3.75;;;;;;;;;;10532235;28;20234;-73
2021/06/23 14:09:24;;;;;;;5.88;3.55;;;;;;;;;;10532745;28;20673;-71
2021/06/23 14:14:27;;;;;;;8.52;3.80;;;;;;;;;;10531334;28;20226;-73
2021/06/23 14:19:29;;;;;;;7.43;4.35;;;;;;;;;;10532042;28;20261;-73
2021/06/23 14:24:34;;;;;;;8.25;4.22;;;;;;;;;;10488219;28;20196;-73
2021/06/23 14:29:39;;;;;;;6.65;4.25;;;;;;;;;;10490723;28;20248;-71
2021/06/23 14:34:42;;;;;;;7.20;4.00;;;;;;;;;;10489989;28;20247;-71
2021/06/23 14:39:46;;;;;;;7.20;4.40;;;;;;;;;;10490156;28;20668;-73
2021/06/23 14:44:48;;;;;;;8.15;4.55;;;;;;;;;;10491955;28;20226;-74
2021/06/23 14:49:51;;;;;;;6.85;4.32;;;;;;;;;;10476601;28;20664;-73
2021/06/23 14:54:56;;;;;;;8.90;6.68;;;;;;;;;;10484311;28;20261;-73
2021/06/23 15:00:00;;;;;;;8.63;5.22;;;;;;;;;;10488319;28;20200;-74
2021/06/23 15:05:03;;;;;;;6.45;4.45;;;;;;;;;;10486462;28;20288;-73
2021/06/23 15:10:09;;;;;;;8.18;4.90;;;;;;;;;;10485324;28;20571;-72
2021/06/23 15:15:12;;;;;;;7.63;4.50;;;;;;;;;;10488663;28;20204;-72
2021/06/23 15:20:15;;;;;;;6.82;4.05;;;;;;;;;;10489248;28;20208;-72
2021/06/23 15:25:19;;;;;;;6.13;3.88;;;;;;;;;;10489409;28;20573;-71
2021/06/23 15:30:22;;;;;;;7.40;4.10;;;;;;;;;;10487558;28;20220;-72
2021/06/23 15:35:25;;;;;;;6.13;3.88;;;;;;;;;;10490651;28;20263;-73
2021/06/23 15:40:29;;;;;;;8.60;4.75;;;;;;;;;;10488076;28;20717;-73
2021/06/23 15:45:32;;;;;;;7.40;4.88;;;;;;;;;;10486133;28;20200;-73
2021/06/23 15:50:35;;;;;;;6.80;4.35;;;;;;;;;;10479490;28;20317;-73
2021/06/23 15:55:39;;;;;;;6.65;4.10;;;;;;;;;;10481982;28;20188;-74
2021/06/23 16:00:41;;;;;;;7.72;4.43;;;;;;;;;;10484093;28;20208;-73
2021/06/23 16:05:44;;;;;;;8.15;4.22;;;;;;;;;;10475971;28;20201;-73
2021/06/23 16:10:48;;;;;;;6.72;4.00;;;;;;;;;;10485596;28;20299;-73
2021/06/23 16:15:51;;;;;;;6.57;3.58;;;;;;;;;;10478809;28;20210;-73
2021/06/23 16:20:56;;;;;;;7.35;4.28;;;;;;;;;;10478996;28;20303;-74
2021/06/23 16:26:00;;;;;;;6.88;3.80;;;;;;;;;;10476616;28;20393;-74
2021/06/23 16:31:03;;;;;;;6.22;3.65;;;;;;;;;;10473558;28;20216;-74
2021/06/23 16:36:06;;;;;;;6.07;3.70;;;;;;;;;;10480746;28;20192;-73
2021/06/23 16:41:10;;;;;;;6.55;3.67;;;;;;;;;;10481707;28;20592;-73
2021/06/23 16:46:13;;;;;;;5.32;3.65;;;;;;;;;;10488195;28;20264;-74
2021/06/23 16:51:15;;;;;;;7.50;3.80;;;;;;;;;;10482064;28;20226;-74
2021/06/23 16:56:19;;;;;;;6.68;3.78;;;;;;;;;;10486566;28;20299;-71
2021/06/23 17:01:22;;;;;;;8.88;4.47;;;;;;;;;;10483533;28;20217;-74
2021/06/23 17:06:24;;;;;;;7.60;4.50;;;;;;;;;;10487429;28;20333;-74
2021/06/23 17:11:28;;;;;;;9.32;4.50;;;;;;;;;;10485549;28;20295;-73
2021/06/23 17:16:32;;;;;;;6.65;3.85;;;;;;;;;;10489296;28;20200;-76
2021/06/23 17:21:35;;;;;;;6.93;4.13;;;;;;;;;;10497792;28;20744;-74
2021/06/23 17:26:40;;;;;;;7.95;3.95;;;;;;;;;;10486784;28;20196;-74
2021/06/23 17:31:42;;;;;;;8.32;3.90;;;;;;;;;;10501776;28;20208;-73
2021/06/23 17:36:45;;;;;;;7.63;3.95;;;;;;;;;;10486135;28;20533;-75
2021/06/23 17:41:49;;;;;;;6.85;3.63;;;;;;;;;;10482573;28;20327;-73
2021/06/23 17:46:51;;;;;;;9.45;4.35;;;;;;;;;;10480776;28;20209;-74
2021/06/23 17:51:54;;;;;;;12.50;8.35;;;;;;;;;;10481229;28;20220;-72
2021/06/23 17:56:58;;;;;;;7.45;4.00;;;;;;;;;;10486221;28;20573;-73
2021/06/23 18:02:00;;;;;;;8.30;3.65;;;;;;;;;;10489366;28;20279;-71
2021/06/23 18:07:03;;;;;;;11.73;5.47;;;;;;;;;;10491530;28;20196;-72
2021/06/23 18:12:08;;;;;;;10.30;5.90;;;;;;;;;;10500436;28;20215;-73
2021/06/23 18:17:10;;;;;;;10.68;5.63;;;;;;;;;;10504540;28;20264;-70
2021/06/23 18:22:13;;;;;;;8.80;5.32;;;;;;;;;;10486167;28;20694;-73
2021/06/23 18:27:17;;;;;;;9.57;5.45;;;;;;;;;;10487631;28;20261;-72
2021/06/23 18:32:20;;;;;;;10.25;5.55;;;;;;;;;;10485582;28;20248;-70
2021/06/23 18:37:24;;;;;;;9.15;5.13;;;;;;;;;;10494882;28;20197;-73
2021/06/23 18:42:29;;;;;;;8.25;5.05;;;;;;;;;;10482357;28;20525;-72
2021/06/23 18:47:34;;;;;;;10.52;6.32;;;;;;;;;;10490335;28;20206;-74
2021/06/23 18:52:36;;;;;;;8.95;5.50;;;;;;;;;;10504178;28;20268;-73
2021/06/23 18:57:40;;;;;;;12.53;6.90;;;;;;;;;;10487512;28;20196;-72
2021/06/23 19:02:43;;;;;;;10.70;6.60;;;;;;;;;;10467810;28;20587;-74
2021/06/23 19:07:47;;;;;;;10.57;6.23;;;;;;;;;;10487565;28;20247;-75
2021/06/23 19:12:51;;;;;;;8.70;5.10;;;;;;;;;;10484277;28;20220;-75
2021/06/23 19:17:54;;;;;;;6.20;3.13;;;;;;;;;;10498621;28;20706;-71
2021/06/23 19:23:01;;;;;;;1.03;0.83;;;;;;;;;;10483181;28;20188;-73
2021/06/23 19:28:05;;;;;;;4.47;1.17;;;;;;;;;;10482093;28;20287;-72
2021/06/23 19:33:07;;;;;;;2.07;0.90;;;;;;;;;;10482611;28;20283;-70
2021/06/23 19:38:10;;;;;;;2.77;1.40;;;;;;;;;;10477071;28;20221;-72
2021/06/23 19:43:15;;;;;;;4.13;1.60;;;;;;;;;;10504096;28;20192;-72
2021/06/23 19:48:18;;;;;;;3.90;1.83;;;;;;;;;;10502124;28;20215;-71
2021/06/23 19:53:20;;;;;;;3.43;1.67;;;;;;;;;;10496917;28;20219;-70
2021/06/23 19:58:25;;;;;;;3.87;1.90;;;;;;;;;;10498112;28;20758;-72
2021/06/23 20:03:28;;;;;;;4.97;2.10;;;;;;;;;;10499876;28;20276;-72
2021/06/23 20:08:30;;;;;;;2.53;1.60;;;;;;;;;;10501268;28;20690;-70
2021/06/23 20:13:34;;;;;;;3.40;1.80;;;;;;;;;;10495784;28;20262;-71
2021/06/23 20:18:37;;;;;;;2.93;1.90;;;;;;;;;;10500133;28;20227;-69
2021/06/23 20:23:39;;;;;;;5.93;1.90;;;;;;;;;;10501295;28;20212;-71
2021/06/23 20:28:46;;;;;;;2.40;1.50;;;;;;;;;;10505276;28;20334;-72
2021/06/23 20:33:49;;;;;;;3.10;1.60;;;;;;;;;;10500201;28;20200;-72
2021/06/23 20:38:52;;;;;;;2.83;1.60;;;;;;;;;;10505776;28;20228;-71
2021/06/23 20:43:56;;;;;;;3.77;1.50;;;;;;;;;;10503081;28;20185;-69
2021/06/23 20:48:58;;;;;;;3.13;1.50;;;;;;;;;;10503702;28;20215;-72
2021/06/23 20:54:01;;;;;;;2.83;1.40;;;;;;;;;;10486193;28;20713;-72
2021/06/23 20:59:05;;;;;;;5.27;1.87;;;;;;;;;;10488192;28;20239;-71
2021/06/23 21:04:08;;;;;;;8.73;4.40;;;;;;;;;;10486331;28;20275;-71
2021/06/23 21:09:26;;;;;;;6.40;3.27;;;;;;;;;;10486068;28;20291;-71
2021/06/23 21:14:32;;;;;;;7.63;3.40;;;;;;;;;;10485386;28;20269;-71
2021/06/23 21:19:35;;;;;;;6.10;2.70;;;;;;;;;;10480285;28;20234;-69
2021/06/23 21:24:38;;;;;;;5.93;2.70;;;;;;;;;;10502048;28;20216;-71
2021/06/23 21:29:43;;;;;;;4.47;2.20;;;;;;;;;;10481331;28;20204;-70
2021/06/23 21:34:46;;;;;;;6.13;2.73;;;;;;;;;;10493187;28;20213;-71
2021/06/23 21:39:49;;;;;;;5.10;2.70;;;;;;;;;;10493622;28;20704;-71
2021/06/23 21:44:53;;;;;;;4.67;2.53;;;;;;;;;;10494277;28;20214;-70
2021/06/23 21:49:55;;;;;;;4.23;2.30;;;;;;;;;;10489453;28;20236;-71
2021/06/23 21:55:04;;;;;;;5.93;3.10;;;;;;;;;;10511496;28;20239;-70
2021/06/23 22:00:14;;;;;;;5.37;2.77;;;;;;;;;;10504589;28;20255;-70
2021/06/23 22:05:16;;;;;;;7.60;3.53;;;;;;;;;;10500757;28;20189;-72
2021/06/23 22:10:20;;;;;;;6.93;2.90;;;;;;;;;;10483089;28;20296;-71
2021/06/23 22:15:25;;;;;;;5.30;2.60;;;;;;;;;;10492070;28;20231;-69
2021/06/23 22:20:29;;;;;;;5.33;2.40;;;;;;;;;;10491269;28;20270;-70
2021/06/23 22:25:33;;;;;;;6.03;2.70;;;;;;;;;;10490292;28;20210;-70
2021/06/23 22:30:37;;;;;;;5.40;2.73;;;;;;;;;;10491100;28;20562;-70
2021/06/23 22:35:40;;;;;;;5.57;2.70;;;;;;;;;;10488470;28;20311;-70
2021/06/23 22:40:47;;;;;;;6.10;2.63;;;;;;;;;;10490508;28;20212;-71
2021/06/23 22:45:54;;;;;;;5.20;2.67;;;;;;;;;;10491841;28;20263;-71
2021/06/23 22:51:06;;;;;;;6.53;2.60;;;;;;;;;;10488141;28;20628;-70
2021/06/23 22:56:10;;;;;;;5.10;2.50;;;;;;;;;;10491809;28;20283;-71
2021/06/23 23:01:16;;;;;;;5.03;2.37;;;;;;;;;;10491553;28;20242;-71
2021/06/23 23:06:19;;;;;;;6.30;2.53;;;;;;;;;;10491400;28;20193;-71
2021/06/23 23:11:23;;;;;;;5.07;2.40;;;;;;;;;;10486996;28;20227;-70
2021/06/23 23:16:27;;;;;;;6.40;2.80;;;;;;;;;;10489078;28;20641;-71
2021/06/23 23:21:29;;;;;;;5.50;2.60;;;;;;;;;;10487793;28;20305;-71
2021/06/23 23:26:32;;;;;;;5.63;1.97;;;;;;;;;;10489157;28;20232;-67
2021/06/23 23:31:36;;;;;;;7.47;2.43;;;;;;;;;;10489060;28;20239;-67
2021/06/23 23:36:40;;;;;;;3.07;1.67;;;;;;;;;;10488381;28;20279;-69
2021/06/23 23:41:43;;;;;;;3.80;1.60;;;;;;;;;;10487154;28;20221;-68
2021/06/23 23:46:47;;;;;;;4.20;1.70;;;;;;;;;;10487037;28;20220;-70
2021/06/23 23:51:49;;;;;;;2.90;1.60;;;;;;;;;;10481187;28;20247;-69
2021/06/23 23:56:52;;;;;;;3.20;1.53;;;;;;;;;;10484294;28;20216;-68
